Time;durP1;ratioP1;P1;durP2;ratioP2;P2;SDS_P1;SDS_P2;PMS_P1;PMS_P2;Temp;Humidity;BMP_temperature;BMP_pressure;BME280_temperature;BME280_humidity;BME280_pressure;Samples;Min_cycle;Max_cycle;Signal;HPM_P1;HPM_P2
2021/01/23 00:02:12;;;;;;;2.15;1.60;;;16.20;45.20;;;;;;6178137;23;20166;-80
2021/01/23 00:04:48;;;;;;;1.85;1.50;;;16.20;45.20;;;;;;6203924;23;20261;-81
2021/01/23 00:07:23;;;;;;;1.88;1.50;;;16.20;45.20;;;;;;6204147;23;20138;-81
2021/01/23 00:09:49;;;;;;;1.67;1.35;;;16.20;45.30;;;;;;6178335;23;20532;-81
2021/01/23 00:12:16;;;;;;;2.83;1.60;;;16.20;45.30;;;;;;6202701;23;20202;-81
2021/01/23 00:14:47;;;;;;;2.08;1.50;;;16.20;45.30;;;;;;6202826;23;20133;-81
2021/01/23 00:17:22;;;;;;;3.47;1.73;;;16.20;45.30;;;;;;6178574;23;20146;-82
2021/01/23 00:19:57;;;;;;;2.33;1.55;;;16.20;45.40;;;;;;6178179;23;20138;-81
2021/01/23 00:22:33;;;;;;;2.47;1.63;;;16.20;45.40;;;;;;6178139;23;20237;-81
2021/01/23 00:28:36;;;;;;;1.70;1.40;;;16.20;45.40;;;;;;6204409;23;20138;-80
2021/01/23 00:31:11;;;;;;;1.88;1.52;;;16.10;45.40;;;;;;6203310;23;20131;-81
2021/01/23 00:33:38;;;;;;;1.77;1.40;;;16.10;45.50;;;;;;6177587;23;20224;-81
2021/01/23 00:36:16;;;;;;;1.92;1.40;;;16.10;45.40;;;;;;6178215;23;20139;-80
2021/01/23 00:38:43;;;;;;;2.08;1.30;;;16.10;45.50;;;;;;6177942;23;20138;-80
2021/01/23 00:41:10;;;;;;;3.15;1.40;;;16.20;45.30;;;;;;6179168;23;20143;-80
2021/01/23 00:43:36;;;;;;;1.65;1.40;;;16.20;45.30;;;;;;6178227;23;20451;-80
2021/01/23 00:46:05;;;;;;;1.52;1.30;;;16.20;45.40;;;;;;6178870;23;20147;-81
2021/01/23 00:48:39;;;;;;;2.42;1.55;;;16.20;45.40;;;;;;6178303;23;20146;-81
2021/01/23 00:51:06;;;;;;;2.08;1.63;;;16.10;45.40;;;;;;6175691;23;20469;-80
2021/01/23 00:53:33;;;;;;;1.95;1.40;;;16.20;45.50;;;;;;6175749;23;20169;-81
2021/01/23 00:56:00;;;;;;;1.30;1.20;;;16.10;45.40;;;;;;6176017;23;20162;-81
2021/01/23 00:58:26;;;;;;;1.55;1.30;;;16.10;45.50;;;;;;6174629;23;20216;-80
2021/01/23 01:00:51;;;;;;;2.50;1.67;;;16.10;45.40;;;;;;6150195;23;20139;-80
2021/01/23 01:03:17;;;;;;;1.42;1.33;;;16.10;45.40;;;;;;6150668;23;20139;-80
2021/01/23 01:05:43;;;;;;;1.83;1.60;;;16.20;45.30;;;;;;6149822;23;20158;-80
2021/01/23 01:08:11;;;;;;;1.77;1.58;;;16.10;45.40;;;;;;6151289;23;20578;-80
2021/01/23 01:10:42;;;;;;;2.30;1.70;;;16.10;45.50;;;;;;6150616;23;20143;-80
2021/01/23 01:13:12;;;;;;;2.33;1.80;;;16.10;45.60;;;;;;6152779;23;20182;-81
2021/01/23 01:15:39;;;;;;;1.75;1.50;;;16.10;45.50;;;;;;6200030;23;20601;-81
2021/01/23 01:18:07;;;;;;;1.77;1.40;;;16.10;45.40;;;;;;6175495;23;20151;-80
2021/01/23 01:20:35;;;;;;;1.40;1.30;;;16.10;45.50;;;;;;6175470;23;20597;-80
2021/01/23 01:23:02;;;;;;;1.70;1.55;;;16.10;45.50;;;;;;6175401;23;20226;-80
2021/01/23 01:25:34;;;;;;;1.90;1.50;;;16.10;45.50;;;;;;6174248;23;20166;-80
2021/01/23 01:28:01;;;;;;;2.20;1.42;;;16.10;45.50;;;;;;6175066;23;20134;-81
2021/01/23 01:30:28;;;;;;;1.90;1.50;;;16.10;45.50;;;;;;6174931;23;20170;-81
2021/01/23 01:32:54;;;;;;;2.25;1.52;;;16.10;45.50;;;;;;6174267;23;20202;-81
2021/01/23 01:35:23;;;;;;;1.80;1.50;;;16.10;45.40;;;;;;6150022;23;20156;-81
2021/01/23 01:37:50;;;;;;;3.10;1.80;;;16.10;45.50;;;;;;6176195;23;20563;-80
2021/01/23 01:40:16;;;;;;;2.05;1.40;;;16.10;45.50;;;;;;6175560;23;20150;-80
2021/01/23 01:42:42;;;;;;;1.90;1.70;;;16.10;45.50;;;;;;6150301;23;20213;-82
2021/01/23 01:45:12;;;;;;;1.80;1.50;;;16.10;46.20;;;;;;6151282;23;20204;-80
2021/01/23 01:47:40;;;;;;;1.70;1.23;;;16.10;45.60;;;;;;6199026;23;20139;-80
2021/01/23 01:50:07;;;;;;;2.20;1.50;;;16.10;45.50;;;;;;6150530;23;20462;-80
2021/01/23 01:52:33;;;;;;;2.25;1.48;;;16.10;45.60;;;;;;6149923;23;20189;-81
2021/01/23 01:54:59;;;;;;;1.88;1.60;;;16.10;45.60;;;;;;6150889;23;20471;-80
2021/01/23 01:57:25;;;;;;;2.22;1.50;;;16.10;45.50;;;;;;6150662;23;20591;-80
2021/01/23 01:59:53;;;;;;;2.05;1.63;;;16.10;45.60;;;;;;6174502;23;20214;-80
2021/01/23 02:06:37;;;;;;;2.47;1.20;;;16.10;45.60;;;;;;6201109;23;20195;-80
2021/01/23 02:09:26;;;;;;;1.73;1.30;;;16.10;45.60;;;;;;6085875;23;20155;-80
2021/01/23 02:12:06;;;;;;;1.85;1.45;;;16.10;45.50;;;;;;6109247;23;20247;-81
2021/01/23 02:18:15;;;;;;;1.73;1.40;;;16.10;45.50;;;;;;6110276;23;20652;-80
2021/01/23 02:20:46;;;;;;;2.38;1.55;;;16.10;45.60;;;;;;6060952;23;20609;-80
2021/01/23 02:23:13;;;;;;;1.40;1.30;;;16.10;45.50;;;;;;6109550;23;20157;-81
2021/01/23 02:25:58;;;;;;;2.47;1.35;;;16.10;45.50;;;;;;6110995;23;20227;-80
2021/01/23 02:29:05;;;;;;;1.80;1.20;;;16.10;45.50;;;;;;6062798;23;20156;-80
2021/01/23 02:31:41;;;;;;;2.45;1.25;;;16.10;45.50;;;;;;5977451;23;20190;-80
2021/01/23 02:34:08;;;;;;;2.35;1.60;;;16.00;45.50;;;;;;5997490;23;20206;-80
2021/01/23 02:36:35;;;;;;;1.35;1.23;;;16.00;45.60;;;;;;5973430;24;20183;-80
2021/01/23 02:39:04;;;;;;;2.60;1.60;;;16.00;45.60;;;;;;5973689;24;20155;-80
2021/01/23 02:41:30;;;;;;;2.70;1.50;;;16.00;45.60;;;;;;5973171;24;20155;-80
2021/01/23 02:44:02;;;;;;;2.63;1.50;;;16.00;45.70;;;;;;6047631;23;20185;-80
2021/01/23 02:46:28;;;;;;;1.98;1.63;;;16.00;45.50;;;;;;6035402;23;20169;-80
2021/01/23 02:49:03;;;;;;;1.50;1.33;;;16.00;45.60;;;;;;6034590;23;20161;-80
2021/01/23 02:55:33;;;;;;;1.45;1.13;;;16.00;45.70;;;;;;6082525;23;20157;-80
2021/01/23 02:58:02;;;;;;;1.88;1.30;;;16.00;45.60;;;;;;6081820;23;20261;-80
2021/01/23 03:00:29;;;;;;;1.92;1.35;;;16.00;45.60;;;;;;6035266;23;20177;-80
2021/01/23 03:02:56;;;;;;;1.70;1.20;;;16.00;45.60;;;;;;6034886;23;20164;-80
2021/01/23 03:05:31;;;;;;;2.53;1.38;;;16.00;45.60;;;;;;6058087;23;20153;-81
2021/01/23 03:08:01;;;;;;;1.50;1.20;;;16.10;45.60;;;;;;6068250;23;20151;-80
2021/01/23 03:10:44;;;;;;;1.65;1.40;;;16.00;45.60;;;;;;6121919;23;20154;-80
2021/01/23 03:13:10;;;;;;;1.40;1.30;;;16.10;45.60;;;;;;6121625;23;20183;-81
2021/01/23 03:15:38;;;;;;;1.80;1.40;;;16.00;45.60;;;;;;6121753;23;20151;-80
2021/01/23 03:18:07;;;;;;;2.33;1.40;;;16.00;45.60;;;;;;6122641;23;20182;-80
2021/01/23 03:20:34;;;;;;;2.88;1.67;;;16.00;45.60;;;;;;6121377;23;20143;-81
2021/01/23 03:23:08;;;;;;;1.63;1.30;;;16.00;45.60;;;;;;6145984;23;20136;-80
2021/01/23 03:25:35;;;;;;;1.52;1.40;;;16.00;45.60;;;;;;6121555;23;20158;-80
2021/01/23 03:28:05;;;;;;;2.05;1.48;;;16.00;45.70;;;;;;6121127;23;20147;-80
2021/01/23 03:30:31;;;;;;;2.00;1.52;;;16.00;45.60;;;;;;6145885;23;20135;-80
2021/01/23 03:32:57;;;;;;;1.55;1.25;;;16.00;45.60;;;;;;6161311;23;20198;-80
2021/01/23 03:35:24;;;;;;;1.88;1.58;;;16.00;45.60;;;;;;6150885;23;20158;-80
2021/01/23 03:44:37;;;;;;;2.42;1.60;;;16.10;45.70;;;;;;6202329;23;20146;-80
2021/01/23 03:47:07;;;;;;;1.70;1.40;;;16.00;45.70;;;;;;6152782;23;20139;-81
2021/01/23 03:49:34;;;;;;;1.70;1.30;;;16.00;45.70;;;;;;6154214;23;20142;-80
2021/01/23 03:52:01;;;;;;;2.35;1.52;;;16.00;45.70;;;;;;6178358;23;20158;-81
2021/01/23 03:54:28;;;;;;;1.55;1.20;;;16.00;45.70;;;;;;6153055;23;20173;-80
2021/01/23 03:56:59;;;;;;;1.90;1.10;;;16.00;45.70;;;;;;6153779;23;20702;-81
2021/01/23 03:59:28;;;;;;;2.45;1.50;;;16.00;45.70;;;;;;6203207;23;20130;-81
2021/01/23 04:01:58;;;;;;;2.20;1.60;;;16.00;45.70;;;;;;6203064;23;20134;-81
2021/01/23 04:07:47;;;;;;;1.70;1.30;;;16.00;45.70;;;;;;6204023;23;20134;-81
2021/01/23 04:10:13;;;;;;;1.52;1.30;;;16.00;45.60;;;;;;6177696;23;20154;-80
2021/01/23 04:12:38;;;;;;;1.70;1.33;;;16.00;45.70;;;;;;6153194;23;20175;-81
2021/01/23 04:15:13;;;;;;;1.63;1.20;;;16.00;45.70;;;;;;6153624;23;20154;-81
2021/01/23 04:17:40;;;;;;;1.58;1.20;;;16.00;45.70;;;;;;6178069;23;20645;-81
2021/01/23 04:20:14;;;;;;;1.90;1.60;;;16.00;45.70;;;;;;6178141;23;20139;-81
2021/01/23 04:22:42;;;;;;;1.50;1.25;;;16.00;45.70;;;;;;6153107;23;20185;-81
2021/01/23 04:31:52;;;;;;;2.33;1.30;;;16.00;45.70;;;;;;6204115;23;20618;-80
2021/01/23 04:34:20;;;;;;;2.20;1.40;;;16.00;45.70;;;;;;6177985;23;20135;-81
2021/01/23 04:36:47;;;;;;;1.92;1.23;;;16.00;45.60;;;;;;6203308;23;20134;-82
2021/01/23 04:39:22;;;;;;;1.30;1.20;;;16.00;45.70;;;;;;6177966;23;20147;-81
2021/01/23 04:41:48;;;;;;;2.05;1.48;;;16.00;45.80;;;;;;6177911;23;20158;-81
2021/01/23 04:44:15;;;;;;;1.20;1.10;;;16.00;45.70;;;;;;6178104;23;20580;-81
2021/01/23 04:46:41;;;;;;;1.33;1.23;;;16.00;45.70;;;;;;6153230;23;20146;-81
2021/01/23 04:49:07;;;;;;;1.42;1.13;;;16.00;45.60;;;;;;6153647;23;20139;-81
2021/01/23 04:51:33;;;;;;;1.30;1.17;;;16.00;45.70;;;;;;6178723;23;20178;-81
2021/01/23 04:53:59;;;;;;;1.50;1.20;;;16.00;45.70;;;;;;6178705;23;20123;-81
2021/01/23 04:56:27;;;;;;;2.72;1.40;;;16.00;46.40;;;;;;6153037;23;20166;-81
2021/01/23 04:58:55;;;;;;;1.40;1.15;;;16.00;45.70;;;;;;6153464;23;20139;-81
2021/01/23 05:01:22;;;;;;;1.60;1.27;;;16.00;46.40;;;;;;6152301;23;20171;-81
2021/01/23 05:03:55;;;;;;;1.77;1.27;;;16.00;45.70;;;;;;6153468;23;20182;-81
2021/01/23 05:06:23;;;;;;;1.63;1.13;;;16.00;45.80;;;;;;6178953;23;20165;-81
2021/01/23 05:08:52;;;;;;;1.50;1.17;;;16.00;45.70;;;;;;6153839;23;20190;-81
2021/01/23 05:11:49;;;;;;;1.38;1.15;;;16.00;45.80;;;;;;6177602;23;20625;-81
2021/01/23 05:14:17;;;;;;;1.80;1.35;;;16.00;46.50;;;;;;6202593;23;20226;-81
2021/01/23 05:16:46;;;;;;;1.33;1.23;;;16.00;45.80;;;;;;6177790;23;20143;-81
2021/01/23 05:19:17;;;;;;;1.90;1.33;;;16.00;45.90;;;;;;6178940;23;20194;-81
2021/01/23 05:22:03;;;;;;;1.90;1.40;;;16.00;45.80;;;;;;6177788;23;20154;-81
2021/01/23 05:24:52;;;;;;;1.80;1.13;;;16.00;45.70;;;;;;6196537;23;20135;-81
2021/01/23 05:27:23;;;;;;;1.83;1.10;;;16.00;45.70;;;;;;6178415;23;20210;-81
2021/01/23 05:36:22;;;;;;;1.33;1.20;;;16.00;45.80;;;;;;6204530;23;20203;-81
2021/01/23 05:38:57;;;;;;;1.92;1.50;;;16.00;45.80;;;;;;6178437;23;20147;-81
2021/01/23 05:41:24;;;;;;;1.52;1.20;;;16.00;45.70;;;;;;6202932;23;20135;-81
2021/01/23 05:43:53;;;;;;;1.92;1.20;;;16.00;45.80;;;;;;6179148;23;20202;-81
2021/01/23 05:46:29;;;;;;;1.65;1.38;;;16.00;45.90;;;;;;6153601;23;20182;-81
2021/01/23 05:49:05;;;;;;;2.10;1.20;;;16.00;45.90;;;;;;6202881;23;20138;-81
2021/01/23 05:55:49;;;;;;;1.90;1.48;;;15.90;45.90;;;;;;6204849;23;20138;-81
2021/01/23 05:58:17;;;;;;;1.63;1.33;;;16.00;45.80;;;;;;6203882;23;20163;-81
2021/01/23 06:00:48;;;;;;;1.45;1.35;;;16.00;45.80;;;;;;6180096;23;20147;-83
2021/01/23 06:03:19;;;;;;;2.03;1.20;;;16.00;45.80;;;;;;6180666;23;20162;-81
2021/01/23 06:05:46;;;;;;;2.40;1.50;;;16.00;45.80;;;;;;6180487;23;20178;-81
2021/01/23 06:08:16;;;;;;;1.67;1.30;;;16.00;45.90;;;;;;6204824;23;20127;-82
2021/01/23 06:10:42;;;;;;;1.73;1.30;;;16.00;45.90;;;;;;6180372;23;20154;-81
2021/01/23 06:13:36;;;;;;;1.23;1.00;;;15.90;45.80;;;;;;6179466;23;20230;-81
2021/01/23 06:16:05;;;;;;;2.22;1.40;;;15.90;45.90;;;;;;6181179;23;20162;-81
2021/01/23 06:18:36;;;;;;;1.30;1.20;;;16.00;45.90;;;;;;6180200;23;20153;-81
2021/01/23 06:21:02;;;;;;;2.67;1.42;;;16.00;45.90;;;;;;6179268;23;20147;-81
2021/01/23 06:23:57;;;;;;;1.33;1.23;;;15.90;45.90;;;;;;6180236;23;20155;-81
2021/01/23 06:26:32;;;;;;;1.67;1.33;;;15.90;45.90;;;;;;6038262;23;20236;-81
2021/01/23 06:29:50;;;;;;;1.80;1.10;;;15.90;45.90;;;;;;6038045;23;20157;-81
2021/01/23 06:32:16;;;;;;;1.88;1.23;;;15.90;45.90;;;;;;6061147;23;20211;-81
2021/01/23 06:35:06;;;;;;;1.63;1.15;;;16.00;45.80;;;;;;6086357;23;20165;-81
2021/01/23 06:38:10;;;;;;;1.58;1.30;;;16.00;45.90;;;;;;6060892;23;20150;-81
2021/01/23 06:41:15;;;;;;;1.50;1.17;;;16.00;46.00;;;;;;6062021;23;20205;-81
2021/01/23 06:44:09;;;;;;;1.55;1.20;;;16.00;45.90;;;;;;6085891;23;20154;-81
2021/01/23 06:47:01;;;;;;;1.52;1.33;;;16.00;45.90;;;;;;6086707;23;20138;-81
2021/01/23 06:49:27;;;;;;;1.52;1.40;;;16.00;45.90;;;;;;6061651;23;20164;-81
2021/01/23 06:55:43;;;;;;;1.67;1.35;;;15.90;46.00;;;;;;6084858;23;20185;-80
2021/01/23 06:58:21;;;;;;;1.40;1.30;;;15.90;46.70;;;;;;6038117;23;20146;-81
2021/01/23 07:00:49;;;;;;;1.83;1.15;;;15.80;45.90;;;;;;6061866;23;20193;-82
2021/01/23 07:03:32;;;;;;;1.40;1.30;;;15.90;46.00;;;;;;6160100;23;20182;-81
2021/01/23 07:06:02;;;;;;;1.20;1.02;;;15.90;46.00;;;;;;6204043;23;20141;-81
2021/01/23 07:08:33;;;;;;;1.42;1.10;;;15.90;45.80;;;;;;6180453;23;20199;-81
2021/01/23 07:11:07;;;;;;;2.47;1.30;;;15.90;45.90;;;;;;6179446;23;20143;-81
2021/01/23 07:13:34;;;;;;;1.30;1.20;;;16.00;45.90;;;;;;6155352;23;20162;-81
2021/01/23 07:16:01;;;;;;;2.08;1.20;;;16.00;45.90;;;;;;6178997;23;20485;-81
2021/01/23 07:18:28;;;;;;;1.80;1.38;;;15.90;45.90;;;;;;6204544;23;20129;-81
2021/01/23 07:20:54;;;;;;;1.50;1.10;;;15.90;45.90;;;;;;6179643;23;20642;-81
2021/01/23 07:27:01;;;;;;;1.95;1.40;;;15.90;45.80;;;;;;6203850;23;20138;-81
2021/01/23 07:29:27;;;;;;;1.83;1.52;;;16.00;45.90;;;;;;6151872;23;20185;-81
2021/01/23 07:31:56;;;;;;;2.53;1.40;;;15.90;45.90;;;;;;6177266;23;20158;-81
2021/01/23 07:34:25;;;;;;;1.77;1.45;;;16.00;45.90;;;;;;6157976;23;20146;-81
2021/01/23 07:43:40;;;;;;;1.25;1.08;;;16.00;45.90;;;;;;6233416;23;20165;-81
2021/01/23 07:46:06;;;;;;;2.67;1.30;;;15.90;45.80;;;;;;6181952;23;20153;-81
2021/01/23 07:48:40;;;;;;;1.40;1.05;;;15.90;45.90;;;;;;6156952;23;20138;-81
2021/01/23 07:51:06;;;;;;;1.25;1.13;;;16.00;45.90;;;;;;6182154;23;20469;-81
2021/01/23 07:53:32;;;;;;;2.13;1.40;;;15.90;45.80;;;;;;6156967;23;20138;-81
2021/01/23 07:56:00;;;;;;;1.65;1.08;;;16.00;45.80;;;;;;6156181;23;20233;-80
2021/01/23 07:58:26;;;;;;;1.75;1.40;;;16.00;45.80;;;;;;6156132;23;20146;-81
2021/01/23 08:00:59;;;;;;;1.60;1.08;;;16.00;45.80;;;;;;6184380;23;20146;-81
2021/01/23 08:03:39;;;;;;;2.22;1.35;;;16.00;45.80;;;;;;6165654;23;20592;-81
2021/01/23 08:06:28;;;;;;;1.42;1.00;;;16.00;45.90;;;;;;6187951;23;20157;-81
2021/01/23 08:08:54;;;;;;;1.55;1.20;;;15.90;45.90;;;;;;6190674;23;20301;-81
2021/01/23 08:11:37;;;;;;;2.05;1.13;;;15.90;46.00;;;;;;6164231;23;20126;-80
2021/01/23 08:14:30;;;;;;;1.55;1.27;;;15.90;46.20;;;;;;6190099;23;20122;-80
2021/01/23 08:17:07;;;;;;;1.45;1.10;;;15.90;46.20;;;;;;6188241;23;20147;-81
2021/01/23 08:19:34;;;;;;;1.35;1.20;;;15.90;46.10;;;;;;6187879;23;20142;-81
2021/01/23 08:22:08;;;;;;;2.08;1.13;;;15.90;46.10;;;;;;6185614;23;20150;-81
2021/01/23 08:24:38;;;;;;;1.92;1.20;;;16.00;46.00;;;;;;6182774;23;20146;-81
2021/01/23 08:27:16;;;;;;;2.40;1.00;;;16.00;45.90;;;;;;6187576;23;20134;-81
2021/01/23 08:29:50;;;;;;;2.20;1.50;;;16.00;45.90;;;;;;6213553;23;20130;-80
2021/01/23 08:32:17;;;;;;;1.92;1.13;;;16.10;45.80;;;;;;6213428;23;20197;-82
2021/01/23 08:34:44;;;;;;;1.60;1.30;;;16.00;45.70;;;;;;6161093;23;20461;-81
2021/01/23 08:37:11;;;;;;;2.25;1.42;;;16.00;45.70;;;;;;6162198;23;20234;-81
2021/01/23 08:39:46;;;;;;;1.52;1.23;;;16.10;45.70;;;;;;6186265;23;20156;-80
2021/01/23 08:42:12;;;;;;;2.35;1.40;;;16.10;45.60;;;;;;6163599;23;20180;-81
2021/01/23 08:44:43;;;;;;;1.25;1.10;;;16.10;45.60;;;;;;6163284;23;20122;-80
2021/01/23 08:47:10;;;;;;;1.52;1.08;;;16.20;45.50;;;;;;6186197;23;20153;-80
2021/01/23 08:49:37;;;;;;;1.60;1.30;;;16.20;45.50;;;;;;6184849;23;20173;-81
2021/01/23 08:52:12;;;;;;;2.40;1.40;;;16.20;45.50;;;;;;6184571;23;20609;-81
2021/01/23 08:54:40;;;;;;;1.90;1.13;;;16.20;45.60;;;;;;6183383;23;20152;-81
2021/01/23 08:57:07;;;;;;;1.38;1.27;;;16.20;45.50;;;;;;6159886;23;20173;-81
2021/01/23 08:59:33;;;;;;;1.25;1.05;;;16.10;45.50;;;;;;6157984;23;20199;-81
2021/01/23 09:01:59;;;;;;;1.45;1.05;;;16.20;45.50;;;;;;6158351;23;20138;-81
2021/01/23 09:04:26;;;;;;;1.60;1.13;;;16.20;45.40;;;;;;6156798;23;20201;-81
2021/01/23 09:06:52;;;;;;;1.75;1.20;;;16.20;45.50;;;;;;6183719;23;20135;-80
2021/01/23 09:09:23;;;;;;;2.15;1.15;;;16.20;45.50;;;;;;6183090;23;20133;-81
2021/01/23 09:11:50;;;;;;;1.83;1.20;;;16.20;45.60;;;;;;6183274;23;20208;-81
2021/01/23 09:14:24;;;;;;;1.58;1.25;;;16.20;45.60;;;;;;6182070;23;20166;-81
2021/01/23 09:16:53;;;;;;;1.48;1.17;;;16.20;45.70;;;;;;6182209;23;20138;-81
2021/01/23 09:19:25;;;;;;;1.50;1.40;;;16.20;45.70;;;;;;6182679;23;20138;-81
2021/01/23 09:21:51;;;;;;;1.67;1.10;;;16.20;45.70;;;;;;6160437;23;20154;-80
2021/01/23 09:24:18;;;;;;;2.35;1.23;;;16.20;45.70;;;;;;6157872;23;20162;-81
2021/01/23 09:26:45;;;;;;;1.15;1.00;;;16.20;45.70;;;;;;6182770;23;20172;-81
2021/01/23 09:29:15;;;;;;;1.25;1.02;;;16.20;45.70;;;;;;6181994;23;20550;-81
2021/01/23 09:31:44;;;;;;;2.00;1.40;;;16.10;45.70;;;;;;6185705;23;20667;-81
2021/01/23 09:34:14;;;;;;;2.33;1.40;;;16.20;45.70;;;;;;6204248;23;20187;-81
2021/01/23 09:36:45;;;;;;;1.48;1.17;;;16.20;45.70;;;;;;6177211;23;20231;-81
2021/01/23 09:39:13;;;;;;;2.78;1.52;;;16.20;45.50;;;;;;6202316;23;20138;-81
2021/01/23 09:41:40;;;;;;;1.42;1.13;;;16.20;45.50;;;;;;6181091;23;20258;-81
2021/01/23 09:44:07;;;;;;;2.28;1.30;;;16.20;45.60;;;;;;6154387;23;20147;-81
2021/01/23 09:46:34;;;;;;;2.28;1.20;;;16.20;45.50;;;;;;6150245;23;20483;-81
2021/01/23 09:49:02;;;;;;;1.35;1.20;;;16.20;45.60;;;;;;6169898;23;20147;-81
2021/01/23 09:58:16;;;;;;;4.00;1.00;;;16.20;45.50;;;;;;6198141;23;20154;-81
2021/01/23 10:00:47;;;;;;;1.63;1.20;;;16.20;45.60;;;;;;6169634;23;20123;-81
2021/01/23 10:03:16;;;;;;;1.58;1.10;;;16.20;45.60;;;;;;6147235;23;20146;-81
2021/01/23 10:05:43;;;;;;;1.90;1.50;;;16.30;45.40;;;;;;6146894;23;20438;-80
2021/01/23 10:08:09;;;;;;;1.27;1.17;;;16.30;45.40;;;;;;6144454;23;20157;-80
2021/01/23 10:10:35;;;;;;;1.38;1.05;;;16.30;45.50;;;;;;6167630;23;20135;-80
2021/01/23 10:13:00;;;;;;;1.52;1.10;;;16.30;45.40;;;;;;6143096;23;20244;-81
2021/01/23 10:15:26;;;;;;;2.15;0.90;;;16.30;45.40;;;;;;6146718;23;20177;-80
2021/01/23 10:17:53;;;;;;;1.50;1.20;;;16.30;45.40;;;;;;6195552;23;20578;-81
2021/01/23 10:20:20;;;;;;;1.77;1.20;;;16.30;45.40;;;;;;6167626;23;20202;-80
2021/01/23 10:22:48;;;;;;;2.88;1.23;;;16.40;45.30;;;;;;6167222;23;20150;-80
2021/01/23 10:25:23;;;;;;;2.15;1.30;;;16.30;45.30;;;;;;6165800;23;20154;-80
2021/01/23 10:27:50;;;;;;;2.13;1.30;;;16.40;45.40;;;;;;6191187;23;20206;-79
2021/01/23 10:30:18;;;;;;;2.42;1.40;;;16.40;45.40;;;;;;6167625;23;20147;-79
2021/01/23 10:32:43;;;;;;;2.05;1.15;;;16.40;45.30;;;;;;6190157;23;20210;-79
2021/01/23 10:35:12;;;;;;;2.38;1.38;;;16.40;45.30;;;;;;6165588;23;20641;-80
2021/01/23 10:37:38;;;;;;;1.30;1.00;;;16.50;45.30;;;;;;6192264;23;20141;-80
2021/01/23 10:40:05;;;;;;;2.08;1.23;;;16.50;45.40;;;;;;6168716;23;20139;-80
2021/01/23 10:42:30;;;;;;;5.03;1.25;;;16.50;45.60;;;;;;6147579;23;20205;-79
2021/01/23 10:44:59;;;;;;;2.90;1.20;;;16.40;45.70;;;;;;6170384;23;20131;-79
2021/01/23 10:47:26;;;;;;;2.97;1.27;;;16.50;45.70;;;;;;6150412;23;20150;-79
2021/01/23 10:49:54;;;;;;;2.53;1.25;;;16.50;45.70;;;;;;6151553;23;20151;-79
2021/01/23 10:52:25;;;;;;;2.17;1.27;;;16.50;45.60;;;;;;6151987;23;20202;-82
2021/01/23 10:54:51;;;;;;;2.40;1.10;;;16.50;45.70;;;;;;6202887;23;20143;-80
2021/01/23 10:57:18;;;;;;;6.13;1.70;;;16.50;45.80;;;;;;6173326;23;20175;-81
2021/01/23 10:59:46;;;;;;;5.50;1.45;;;16.50;45.90;;;;;;6170665;23;20131;-81
2021/01/23 11:02:12;;;;;;;10.18;1.70;;;16.50;45.70;;;;;;6171612;23;20153;-80
2021/01/23 11:04:39;;;;;;;7.20;1.48;;;16.50;45.90;;;;;;6147268;23;20143;-81
2021/01/23 11:07:08;;;;;;;15.20;2.42;;;16.50;45.90;;;;;;6197798;23;20166;-81
2021/01/23 11:09:34;;;;;;;5.38;1.50;;;16.50;46.00;;;;;;6197885;23;20131;-81
2021/01/23 11:12:01;;;;;;;10.93;1.52;;;16.50;45.90;;;;;;6170509;23;20177;-80
2021/01/23 11:14:28;;;;;;;11.57;1.63;;;16.50;45.70;;;;;;6148508;23;20139;-81
2021/01/23 11:16:57;;;;;;;14.25;1.85;;;16.50;45.70;;;;;;6150576;23;20158;-81
2021/01/23 11:19:24;;;;;;;14.25;2.30;;;16.60;45.50;;;;;;6199458;23;20448;-80
2021/01/23 11:21:50;;;;;;;18.98;2.42;;;16.60;45.50;;;;;;6174446;23;20567;-81
2021/01/23 11:24:22;;;;;;;17.13;1.77;;;16.60;45.50;;;;;;6151044;23;20149;-81
2021/01/23 11:26:48;;;;;;;18.95;2.15;;;16.60;45.70;;;;;;6154184;23;20142;-80
2021/01/23 11:29:23;;;;;;;17.48;2.30;;;16.60;45.80;;;;;;6178565;23;20203;-81
2021/01/23 11:31:49;;;;;;;16.92;2.50;;;16.60;45.80;;;;;;6151798;23;20238;-80
2021/01/23 11:34:15;;;;;;;15.93;2.13;;;16.60;45.80;;;;;;6176845;23;20201;-79
2021/01/23 11:36:41;;;;;;;24.23;2.50;;;16.60;45.80;;;;;;6199164;23;20131;-80
2021/01/23 11:39:07;;;;;;;19.58;2.85;;;16.70;45.80;;;;;;6172142;23;20147;-81
2021/01/23 11:41:34;;;;;;;14.70;1.95;;;16.70;45.50;;;;;;6147182;23;20234;-80
2021/01/23 11:44:01;;;;;;;23.13;2.38;;;16.80;45.60;;;;;;6148021;23;20186;-81
2021/01/23 11:46:31;;;;;;;23.63;2.17;;;16.80;45.80;;;;;;6174026;23;20439;-81
2021/01/23 11:48:57;;;;;;;18.48;2.70;;;16.80;45.60;;;;;;6174247;23;20286;-81
2021/01/23 11:51:23;;;;;;;23.92;2.67;;;16.80;45.80;;;;;;6147309;23;20143;-81
2021/01/23 11:53:51;;;;;;;19.38;2.17;;;16.70;45.80;;;;;;6168872;23;20123;-81
2021/01/23 11:56:17;;;;;;;15.82;2.60;;;16.70;45.80;;;;;;6146891;23;20174;-81
2021/01/23 11:58:44;;;;;;;20.40;2.28;;;16.80;45.70;;;;;;6149698;23;20158;-82
2021/01/23 12:01:10;;;;;;;14.20;1.80;;;16.80;45.70;;;;;;6144833;23;20146;-80
2021/01/23 12:03:37;;;;;;;19.88;2.50;;;16.70;45.60;;;;;;6166272;23;20135;-81
2021/01/23 12:06:04;;;;;;;8.98;1.80;;;16.80;45.70;;;;;;6166412;23;20131;-81
2021/01/23 12:08:30;;;;;;;15.20;2.00;;;16.80;45.70;;;;;;6168518;23;20547;-81
2021/01/23 12:10:56;;;;;;;8.05;2.25;;;16.80;45.80;;;;;;6168687;23;20141;-81
2021/01/23 12:13:24;;;;;;;10.32;1.95;;;16.80;45.70;;;;;;6168873;23;20182;-80
2021/01/23 12:15:51;;;;;;;10.82;1.95;;;16.80;45.60;;;;;;6147255;23;20158;-82
2021/01/23 12:18:25;;;;;;;13.60;1.85;;;16.80;45.60;;;;;;6190845;23;20135;-81
2021/01/23 12:20:50;;;;;;;12.35;2.33;;;16.80;45.60;;;;;;6141357;23;20594;-81
2021/01/23 12:23:18;;;;;;;12.18;1.90;;;16.80;45.60;;;;;;6166756;23;20135;-81
2021/01/23 12:25:45;;;;;;;16.30;2.17;;;16.80;45.60;;;;;;6142014;23;20142;-81
2021/01/23 12:28:10;;;;;;;8.88;1.63;;;16.80;45.80;;;;;;6165400;23;20135;-81
2021/01/23 12:30:36;;;;;;;11.80;1.85;;;16.80;45.80;;;;;;6167897;23;20611;-81
2021/01/23 12:33:04;;;;;;;13.15;1.95;;;16.80;45.70;;;;;;6193112;23;20220;-81
2021/01/23 12:35:33;;;;;;;10.90;1.90;;;16.80;45.80;;;;;;6190151;23;20646;-81
2021/01/23 12:38:00;;;;;;;12.73;1.90;;;16.80;45.80;;;;;;6166260;23;20143;-81
2021/01/23 12:40:27;;;;;;;12.10;2.20;;;16.80;45.80;;;;;;6191578;23;20174;-81
2021/01/23 12:42:55;;;;;;;14.07;1.90;;;16.80;45.80;;;;;;6167694;23;20603;-81
2021/01/23 12:45:22;;;;;;;10.43;1.63;;;16.80;45.80;;;;;;6192993;23;20144;-81
2021/01/23 12:47:48;;;;;;;9.63;2.00;;;16.80;45.70;;;;;;6192409;23;20146;-81
2021/01/23 12:50:15;;;;;;;18.02;2.03;;;16.80;45.60;;;;;;6166762;23;20495;-81
2021/01/23 12:52:42;;;;;;;7.63;1.70;;;16.80;45.70;;;;;;6193191;23;20213;-81
2021/01/23 12:55:18;;;;;;;13.50;2.28;;;16.90;45.60;;;;;;6168629;23;20171;-81
2021/01/23 12:57:52;;;;;;;13.20;1.80;;;16.90;45.50;;;;;;6167870;23;20139;-81
2021/01/23 13:00:21;;;;;;;14.20;1.80;;;16.90;45.50;;;;;;6193115;23;20142;-81
2021/01/23 13:02:48;;;;;;;16.92;2.55;;;16.90;45.50;;;;;;6193481;23;20161;-81
2021/01/23 13:05:15;;;;;;;12.77;1.92;;;16.90;45.70;;;;;;6195895;23;20131;-81
2021/01/23 13:07:47;;;;;;;11.43;1.90;;;16.90;45.70;;;;;;6194074;23;20157;-81
2021/01/23 13:10:14;;;;;;;9.60;1.55;;;16.90;45.70;;;;;;6169291;23;20150;-81
2021/01/23 13:12:40;;;;;;;10.98;1.77;;;16.80;45.60;;;;;;6169016;23;20213;-81
2021/01/23 13:15:07;;;;;;;10.48;1.92;;;16.80;45.60;;;;;;6167539;23;20131;-81
2021/01/23 13:17:36;;;;;;;13.00;1.85;;;16.90;45.60;;;;;;6143949;23;20138;-81
2021/01/23 13:20:03;;;;;;;11.90;1.73;;;16.90;45.40;;;;;;6191794;23;20482;-81
2021/01/23 13:22:30;;;;;;;9.30;1.88;;;16.90;45.50;;;;;;6145035;23;20170;-81
2021/01/23 13:24:57;;;;;;;6.65;1.73;;;16.90;45.50;;;;;;6168490;23;20135;-81
2021/01/23 13:27:24;;;;;;;12.23;2.00;;;16.90;45.60;;;;;;6145575;23;20135;-81
2021/01/23 13:29:51;;;;;;;11.20;1.63;;;16.90;45.60;;;;;;6147399;23;20177;-81
2021/01/23 13:32:16;;;;;;;4.82;1.60;;;16.80;45.60;;;;;;6150468;23;20278;-81
2021/01/23 13:34:42;;;;;;;11.45;2.05;;;16.80;45.60;;;;;;6178599;23;20138;-81
2021/01/23 13:37:08;;;;;;;6.85;1.60;;;16.90;45.50;;;;;;6177239;23;20146;-81
2021/01/23 13:39:34;;;;;;;8.98;1.75;;;16.90;45.50;;;;;;6173476;23;20126;-81
2021/01/23 13:42:04;;;;;;;10.10;1.95;;;16.90;45.50;;;;;;6201441;23;20135;-81
2021/01/23 13:44:30;;;;;;;9.07;1.83;;;16.90;45.60;;;;;;6199183;23;20145;-81
2021/01/23 13:46:55;;;;;;;10.82;1.90;;;16.90;45.50;;;;;;6196748;23;20138;-81
2021/01/23 13:49:22;;;;;;;8.23;1.85;;;16.90;45.40;;;;;;6171259;23;20137;-81
2021/01/23 13:51:48;;;;;;;8.88;1.50;;;16.90;45.50;;;;;;6171385;23;20208;-81
2021/01/23 13:54:16;;;;;;;6.68;1.83;;;16.80;45.60;;;;;;6170782;23;20184;-81
2021/01/23 13:56:43;;;;;;;12.13;1.60;;;16.90;45.50;;;;;;6171148;23;20582;-81
2021/01/23 13:59:08;;;;;;;8.68;1.65;;;16.90;45.50;;;;;;6195530;23;20185;-81
2021/01/23 14:01:34;;;;;;;6.43;1.60;;;16.90;45.50;;;;;;6170239;23;20139;-81
2021/01/23 14:04:00;;;;;;;7.03;1.50;;;16.90;45.60;;;;;;6170906;23;20205;-81